Time;durP1;ratioP1;P1;durP2;ratioP2;P2;SDS_P1;SDS_P2;PMS_P1;PMS_P2;Temp;Humidity;BMP_temperature;BMP_pressure;BME280_temperature;BME280_humidity;BME280_pressure;Samples;Min_cycle;Max_cycle;Signal;HPM_P1;HPM_P2
2022/03/09 00:00:15;;;;;;;3.10;2.87;;;;;;;-2.39;66.49;100567.34;1708316;82;21050;-67
2022/03/09 00:02:42;;;;;;;;;;;;;;;-2.38;66.52;100582.05;1709851;82;21066;-65
2022/03/09 00:05:09;;;;;;;3.13;2.83;;;;;;;-2.44;66.86;100571.18;1708107;83;20199;-66
2022/03/09 00:07:37;;;;;;;3.07;2.73;;;;;;;-2.44;66.89;100572.48;1708801;82;21027;-67
2022/03/09 00:10:05;;;;;;;2.37;2.13;;;;;;;-2.40;66.58;100570.04;1708452;82;21063;-69
2022/03/09 00:12:33;;;;;;;2.40;2.20;;;;;;;-2.39;66.75;100568.64;1688273;82;21085;-68
2022/03/09 00:15:01;;;;;;;3.77;3.07;;;;;;;-2.39;66.11;100567.81;1708245;82;21133;-65
2022/03/09 00:17:28;;;;;;;2.90;2.53;;;;;;;-2.40;66.11;100566.95;1708227;82;22051;-69
2022/03/09 00:19:55;;;;;;;3.27;2.87;;;;;;;-2.35;66.16;100570.59;1708457;82;21637;-66
2022/03/09 00:22:23;;;;;;;2.93;2.67;;;;;;;-2.33;66.27;100567.41;1708134;82;21130;-65
2022/03/09 00:24:51;;;;;;;3.00;2.37;;;;;;;-2.38;67.09;100566.37;1708089;82;21557;-66
2022/03/09 00:27:18;;;;;;;5.70;2.90;;;;;;;-2.41;66.98;100565.30;1696828;82;20995;-65
2022/03/09 00:29:45;;;;;;;;;;;;;;;-2.43;66.93;100565.00;1692054;83;21058;-71
2022/03/09 00:32:13;;;;;;;3.50;3.00;;;;;;;-2.42;66.70;100568.00;1706893;82;20232;-67
2022/03/09 00:34:40;;;;;;;3.83;3.37;;;;;;;-2.53;66.82;100563.94;1707874;82;21055;-65
2022/03/09 00:37:07;;;;;;;5.93;3.83;;;;;;;-2.56;66.89;100564.50;1708360;82;21534;-65
2022/03/09 00:39:34;;;;;;;7.03;4.47;;;;;;;-2.57;66.77;100560.69;1708639;82;21097;-65
2022/03/09 00:42:02;;;;;;;6.30;4.33;;;;;;;-2.56;66.56;100562.37;1708426;82;21054;-65
2022/03/09 00:44:28;;;;;;;6.63;4.13;;;;;;;-2.52;66.40;100557.77;1706141;82;21089;-65
2022/03/09 00:46:55;;;;;;;;;;;;;;;-2.55;66.34;100570.08;1710757;82;21039;-69
2022/03/09 00:49:22;;;;;;;6.13;4.60;;;;;;;-2.48;66.44;100568.41;1705131;82;20307;-73
2022/03/09 00:51:49;;;;;;;5.23;4.00;;;;;;;-2.51;66.43;100569.89;1700538;82;21384;-67
2022/03/09 00:54:17;;;;;;;4.53;3.93;;;;;;;-2.59;66.28;100566.47;1708744;82;21066;-65
2022/03/09 00:56:45;;;;;;;5.03;4.00;;;;;;;-2.61;66.47;100560.52;1672198;84;21541;-63
2022/03/09 00:59:11;;;;;;;7.70;4.07;;;;;;;-2.63;66.33;100561.09;1669973;84;21071;-64
2022/03/09 01:01:38;;;;;;;7.55;3.92;;;;;;;-2.60;66.31;100559.56;1660432;84;21106;-64
2022/03/09 01:04:05;;;;;;;8.65;5.00;;;;;;;-2.59;66.20;100563.38;1676372;84;21035;-65
2022/03/09 01:06:32;;;;;;;6.87;4.40;;;;;;;-2.57;66.28;100562.81;1654709;84;21114;-68
2022/03/09 01:09:01;;;;;;;5.47;4.43;;;;;;;-2.55;66.17;100564.86;1652696;84;21570;-67
2022/03/09 01:11:28;;;;;;;7.50;4.80;;;;;;;-2.54;66.02;100567.02;1681888;84;21542;-67
2022/03/09 01:13:57;;;;;;;8.60;5.13;;;;;;;-2.53;65.93;100562.63;1667397;84;21149;-67
2022/03/09 01:16:23;;;;;;;6.83;5.93;;;;;;;-2.48;65.90;100560.57;1656903;85;21051;-64
2022/03/09 01:18:55;;;;;;;8.33;6.17;;;;;;;-2.45;65.96;100564.27;1656688;85;21090;-68
2022/03/09 01:21:24;;;;;;;6.67;4.30;;;;;;;-2.43;65.52;100561.09;1667663;85;21074;-67
2022/03/09 01:23:50;;;;;;;7.53;5.90;;;;;;;-2.43;65.33;100568.92;1640220;84;21119;-64
2022/03/09 01:26:18;;;;;;;9.00;5.53;;;;;;;-2.42;65.41;100562.78;1624385;87;21096;-63
2022/03/09 01:28:44;;;;;;;5.83;4.63;;;;;;;-2.38;65.44;100568.16;1638562;87;21016;-65
2022/03/09 01:31:12;;;;;;;7.73;6.87;;;;;;;-2.39;65.48;100569.95;1632652;85;21095;-65
2022/03/09 01:33:40;;;;;;;8.03;4.97;;;;;;;-2.38;65.35;100568.99;1637653;85;20979;-65
2022/03/09 01:36:07;;;;;;;8.67;5.60;;;;;;;-2.34;65.31;100574.85;1657709;85;21050;-67
2022/03/09 01:38:36;;;;;;;7.43;5.37;;;;;;;-2.33;65.46;100576.55;1658845;84;21099;-65
2022/03/09 01:41:03;;;;;;;5.53;4.43;;;;;;;-2.27;65.50;100568.78;1654996;84;21123;-68
2022/03/09 01:43:30;;;;;;;5.70;4.77;;;;;;;-2.27;65.36;100573.53;1652940;84;21060;-66
2022/03/09 01:45:57;;;;;;;7.03;5.67;;;;;;;-2.25;65.17;100569.03;1650958;84;21024;-65
2022/03/09 01:48:25;;;;;;;9.33;6.17;;;;;;;-2.23;65.20;100564.55;1650776;85;21683;-67
2022/03/09 01:50:51;;;;;;;;;;;;;;;-2.27;65.38;100562.25;1670867;85;21132;-66
2022/03/09 01:53:18;;;;;;;14.53;5.30;;;;;;;-2.28;65.18;100573.17;1651264;85;20122;-65
2022/03/09 01:55:47;;;;;;;7.93;5.50;;;;;;;-2.32;65.25;100576.89;1650729;84;21124;-65
2022/03/09 01:58:14;;;;;;;6.73;5.77;;;;;;;-2.33;65.03;100579.63;1658957;85;21552;-64
2022/03/09 02:00:48;;;;;;;8.63;6.40;;;;;;;-2.38;65.00;100579.91;1650949;85;21084;-64
2022/03/09 02:03:15;;;;;;;7.47;6.05;;;;;;;-2.39;65.42;100582.17;1655271;85;21212;-67
2022/03/09 02:05:44;;;;;;;6.63;5.17;;;;;;;-2.39;65.39;100578.25;1680226;82;21565;-65
2022/03/09 02:11:00;;;;;;;5.15;4.65;;;;;;;-2.39;65.24;100579.08;1679987;82;21098;-65
2022/03/09 02:13:29;;;;;;;8.97;6.70;;;;;;;-2.35;65.26;100580.55;1680217;82;21034;-67
2022/03/09 02:15:56;;;;;;;7.40;4.65;;;;;;;-2.42;65.18;100587.10;1680313;84;21066;-71
2022/03/09 02:18:24;;;;;;;7.30;4.77;;;;;;;-2.51;65.26;100587.69;1679948;84;21190;-71
2022/03/09 02:20:53;;;;;;;8.40;5.70;;;;;;;-2.56;65.35;100594.52;1680135;84;21059;-67
2022/03/09 02:23:20;;;;;;;7.80;5.37;;;;;;;-2.61;65.36;100591.36;1663611;84;21128;-65
2022/03/09 02:25:48;;;;;;;7.30;5.80;;;;;;;-2.62;65.52;100592.75;1640941;86;20988;-65
2022/03/09 02:28:15;;;;;;;6.20;5.00;;;;;;;-2.70;65.63;100598.45;1640983;86;21105;-65
2022/03/09 02:30:43;;;;;;;6.93;5.63;;;;;;;-2.78;66.02;100599.42;1641720;86;21604;-66
2022/03/09 02:33:11;;;;;;;8.00;6.80;;;;;;;-2.86;66.34;100595.98;1693533;84;22318;-70
2022/03/09 02:35:38;;;;;;;7.50;5.72;;;;;;;-2.85;66.26;100596.34;1695056;83;21058;-65
2022/03/09 02:38:04;;;;;;;;;;;;;;;-2.82;66.32;100603.98;1691293;84;21491;-65
2022/03/09 02:40:31;;;;;;;5.50;4.90;;;;;;;-2.80;66.11;100603.89;1699545;84;21020;-72
2022/03/09 02:42:58;;;;;;;7.27;5.70;;;;;;;-2.85;66.38;100611.16;1684233;84;21062;-64
2022/03/09 02:45:25;;;;;;;5.67;5.10;;;;;;;-2.86;66.49;100608.17;1660869;85;21074;-66
2022/03/09 02:47:58;;;;;;;8.23;5.50;;;;;;;-2.90;66.52;100606.69;1641040;85;21044;-67
2022/03/09 02:50:25;;;;;;;7.03;5.53;;;;;;;-2.92;66.72;100604.64;1658381;84;21150;-68
2022/03/09 02:52:52;;;;;;;7.87;6.08;;;;;;;-2.92;66.65;100609.39;1670219;84;21148;-70
2022/03/09 02:55:21;;;;;;;7.23;5.97;;;;;;;-2.91;66.88;100614.99;1671988;84;21079;-66
2022/03/09 02:57:47;;;;;;;9.40;6.27;;;;;;;-2.87;66.83;100611.73;1714009;82;21061;-65
2022/03/09 03:00:14;;;;;;;9.95;5.95;;;;;;;-2.83;66.83;100615.34;1714553;82;21074;-66
2022/03/09 03:02:43;;;;;;;9.07;6.03;;;;;;;-2.74;66.50;100610.03;1713336;82;21204;-72
2022/03/09 03:05:10;;;;;;;7.05;5.47;;;;;;;-2.69;66.33;100613.20;1714268;82;21117;-67
2022/03/09 03:07:38;;;;;;;9.17;7.00;;;;;;;-2.62;66.13;100612.33;1714470;82;21038;-65
2022/03/09 03:10:07;;;;;;;5.93;5.20;;;;;;;-2.65;66.20;100615.98;1714669;82;21026;-65
2022/03/09 03:12:35;;;;;;;6.07;4.87;;;;;;;-2.66;66.39;100612.16;1714539;82;21594;-66
2022/03/09 03:15:04;;;;;;;;;;;;;;;-2.63;66.44;100614.58;1737662;82;22095;-65
2022/03/09 03:17:31;;;;;;;6.57;5.37;;;;;;;-2.57;66.44;100616.80;1714514;82;20123;-65
2022/03/09 03:19:59;;;;;;;6.07;4.43;;;;;;;-2.57;66.53;100615.02;1713420;82;20975;-67
2022/03/09 03:22:28;;;;;;;8.67;6.37;;;;;;;-2.60;66.35;100602.18;1714261;82;21050;-64
2022/03/09 03:24:57;;;;;;;4.97;4.57;;;;;;;-2.55;66.20;100624.06;1714415;82;21145;-65
2022/03/09 03:27:23;;;;;;;6.70;5.70;;;;;;;-2.62;66.26;100622.32;1704524;82;21141;-65
2022/03/09 03:29:50;;;;;;;;;;;;;;;-2.65;66.39;100625.11;1707216;82;21054;-65
2022/03/09 03:32:16;;;;;;;7.40;5.27;;;;;;;-2.70;66.55;100627.64;1713628;82;20426;-65
2022/03/09 03:34:43;;;;;;;7.40;6.15;;;;;;;-2.75;66.77;100618.78;1714734;82;21022;-71
2022/03/09 03:37:10;;;;;;;6.85;5.15;;;;;;;-2.72;66.80;100623.81;1713433;82;21114;-66
2022/03/09 03:39:37;;;;;;;7.77;5.90;;;;;;;-2.69;66.88;100623.63;1713906;82;21137;-65
2022/03/09 03:42:04;;;;;;;7.62;6.50;;;;;;;-2.70;66.77;100625.03;1694760;82;21602;-73
2022/03/09 03:44:33;;;;;;;7.53;5.77;;;;;;;-2.70;66.89;100623.72;1694477;82;21120;-65
2022/03/09 03:46:59;;;;;;;8.80;7.07;;;;;;;-2.69;66.88;100627.99;1711747;84;21034;-64
2022/03/09 03:49:26;;;;;;;;;;;;;;;-2.69;66.76;100623.63;1693251;82;21105;-65
2022/03/09 03:51:54;;;;;;;10.60;6.35;;;;;;;-2.70;66.93;100615.89;1703992;82;20111;-68
2022/03/09 03:54:20;;;;;;;;;;;;;;;-2.73;66.98;100618.24;1717118;82;21513;-65
2022/03/09 03:56:49;;;;;;;8.80;5.50;;;;;;;-2.71;66.92;100618.98;1714348;82;20206;-64
2022/03/09 03:59:16;;;;;;;7.90;6.13;;;;;;;-2.70;66.76;100614.59;1713295;82;21074;-70
2022/03/09 04:01:42;;;;;;;8.75;5.40;;;;;;;-2.71;66.68;100624.64;1713691;82;21034;-65
2022/03/09 04:04:09;;;;;;;6.00;5.17;;;;;;;-2.71;66.73;100631.16;1709334;82;21587;-67
2022/03/09 04:06:36;;;;;;;;;;;;;;;-2.71;66.59;100624.20;1703222;82;21092;-72
2022/03/09 04:09:03;;;;;;;6.10;5.50;;;;;;;-2.80;66.83;100626.08;1714675;82;20481;-71
2022/03/09 04:11:31;;;;;;;8.23;5.47;;;;;;;-2.84;67.04;100631.12;1690298;84;20990;-66
2022/03/09 04:13:57;;;;;;;;;;;;;;;-2.80;67.06;100631.30;1717066;82;21006;-64
2022/03/09 04:16:27;;;;;;;6.00;5.40;;;;;;;-2.79;67.00;100627.73;1714461;82;20126;-64
2022/03/09 04:18:54;;;;;;;5.20;4.70;;;;;;;-2.82;67.06;100627.95;1714676;82;21506;-64
2022/03/09 04:21:20;;;;;;;7.30;5.65;;;;;;;-2.80;67.18;100630.81;1714258;82;21049;-65
2022/03/09 04:23:47;;;;;;;4.83;4.30;;;;;;;-2.72;67.18;100630.81;1714369;82;21029;-64
2022/03/09 04:26:14;;;;;;;5.97;5.37;;;;;;;-2.70;66.91;100625.86;1714747;82;21018;-64
2022/03/09 04:28:42;;;;;;;9.10;6.17;;;;;;;-2.69;66.84;100631.47;1714336;82;21078;-65
2022/03/09 04:31:10;;;;;;;5.13;4.57;;;;;;;-2.64;66.73;100635.08;1717080;82;21065;-66
2022/03/09 04:33:36;;;;;;;;;;;;;;;-2.63;66.59;100637.59;1736528;82;22529;-68
2022/03/09 04:36:05;;;;;;;6.80;5.70;;;;;;;-2.62;66.39;100635.81;1713865;82;20119;-64
2022/03/09 04:38:32;;;;;;;4.77;4.03;;;;;;;-2.68;66.48;100645.34;1694265;82;21571;-68
2022/03/09 04:40:58;;;;;;;;;;;;;;;-2.71;66.51;100648.98;1716311;82;21064;-67
2022/03/09 04:43:26;;;;;;;10.08;6.28;;;;;;;-2.73;66.62;100653.47;1714616;82;20526;-65
2022/03/09 04:45:53;;;;;;;6.03;4.95;;;;;;;-2.81;66.78;100659.12;1707940;82;21067;-65
2022/03/09 04:48:20;;;;;;;6.63;5.30;;;;;;;-2.83;66.81;100653.17;1701931;82;21323;-64
2022/03/09 04:50:48;;;;;;;6.70;4.43;;;;;;;-2.79;66.84;100657.73;1699475;82;20975;-64
2022/03/09 04:53:15;;;;;;;5.80;5.20;;;;;;;-2.72;66.40;100655.60;1714687;82;21073;-65
2022/03/09 04:55:42;;;;;;;8.07;5.50;;;;;;;-2.69;66.13;100660.61;1714372;82;21348;-65
2022/03/09 04:58:08;;;;;;;5.92;5.00;;;;;;;-2.62;66.22;100656.25;1714795;82;21082;-65
2022/03/09 05:00:36;;;;;;;6.30;5.03;;;;;;;-2.49;65.76;100660.69;1714491;82;21081;-65
2022/03/09 05:03:03;;;;;;;10.47;7.07;;;;;;;-2.40;65.21;100664.02;1713632;82;22109;-64
2022/03/09 05:05:29;;;;;;;7.53;6.17;;;;;;;-2.39;65.07;100665.23;1715010;82;21037;-64
2022/03/09 05:07:58;;;;;;;7.10;5.73;;;;;;;-2.38;64.99;100664.77;1714619;82;21088;-64
2022/03/09 05:10:25;;;;;;;5.67;4.17;;;;;;;-2.38;64.81;100669.98;1714835;82;21041;-65
2022/03/09 05:12:53;;;;;;;6.50;4.93;;;;;;;-2.40;64.65;100671.37;1714704;82;21037;-64
2022/03/09 05:15:22;;;;;;;5.53;4.93;;;;;;;-2.39;64.87;100675.68;1713451;82;21061;-65
2022/03/09 05:17:49;;;;;;;6.87;4.97;;;;;;;-2.38;65.03;100677.81;1714818;82;21066;-66
2022/03/09 05:20:16;;;;;;;6.77;5.33;;;;;;;-2.32;64.61;100677.42;1714688;82;21596;-64
2022/03/09 05:22:42;;;;;;;;;;;;;;;-2.38;64.12;100676.51;1717286;82;21104;-64
2022/03/09 05:25:11;;;;;;;7.03;5.35;;;;;;;-2.51;64.44;100684.27;1715038;82;20134;-64
2022/03/09 05:27:39;;;;;;;5.83;5.07;;;;;;;-2.64;64.62;100689.41;1714980;82;21014;-64
2022/03/09 05:30:09;;;;;;;6.43;4.90;;;;;;;-2.69;64.87;100688.88;1714618;82;21156;-67
2022/03/09 05:32:37;;;;;;;5.10;4.57;;;;;;;-2.70;64.90;100690.27;1714949;82;21036;-64
2022/03/09 05:35:06;;;;;;;4.83;4.07;;;;;;;-2.69;65.08;100696.70;1714786;82;21050;-69
2022/03/09 05:37:41;;;;;;;5.37;4.00;;;;;;;-2.66;64.74;100703.49;1714368;82;21119;-65
2022/03/09 05:40:10;;;;;;;6.27;4.57;;;;;;;-2.41;64.57;100708.02;1713586;82;21050;-64
2022/03/09 05:42:37;;;;;;;8.37;5.00;;;;;;;-2.14;63.46;100702.02;1711895;82;21470;-64
2022/03/09 05:45:07;;;;;;;4.20;3.90;;;;;;;-2.04;63.03;100707.84;1714215;84;21061;-68
2022/03/09 05:47:36;;;;;;;6.57;5.17;;;;;;;-1.87;62.84;100705.93;1693403;82;21564;-64
2022/03/09 05:50:04;;;;;;;4.87;4.10;;;;;;;-1.53;62.07;100709.78;1703923;82;21096;-69
2022/03/09 05:52:31;;;;;;;5.70;4.13;;;;;;;-1.06;61.08;100711.47;1711127;82;21066;-64
2022/03/09 05:54:58;;;;;;;;;;;;;;;-0.76;59.59;100709.84;1717382;82;21094;-65
2022/03/09 05:57:25;;;;;;;5.30;4.50;;;;;;;-0.65;59.20;100709.94;1713387;82;20230;-71
2022/03/09 05:59:53;;;;;;;5.50;4.63;;;;;;;-0.66;58.54;100710.03;1713675;82;21007;-65
2022/03/09 06:02:20;;;;;;;6.12;5.35;;;;;;;-0.69;58.51;100716.33;1714577;82;21129;-70
2022/03/09 06:04:48;;;;;;;6.25;5.25;;;;;;;-0.73;58.48;100710.12;1714352;82;21577;-65
2022/03/09 06:07:14;;;;;;;7.33;5.17;;;;;;;-0.71;58.86;100720.84;1714810;82;21513;-68
2022/03/09 06:09:42;;;;;;;7.53;5.97;;;;;;;-0.58;58.29;100719.52;1714876;82;21041;-68
2022/03/09 06:12:11;;;;;;;5.90;4.63;;;;;;;-0.37;57.65;100722.41;1714546;82;21155;-66
2022/03/09 06:14:38;;;;;;;6.30;4.60;;;;;;;-0.16;57.74;100717.42;1713497;82;21045;-69
2022/03/09 06:17:05;;;;;;;8.20;5.47;;;;;;;0.22;56.84;100710.36;1714334;82;21034;-67
2022/03/09 06:19:32;;;;;;;7.17;4.97;;;;;;;0.64;55.28;100713.37;1714595;82;22173;-65
2022/03/09 06:21:59;;;;;;;5.27;4.40;;;;;;;0.63;55.25;100716.48;1714424;82;21039;-65
2022/03/09 06:24:26;;;;;;;5.58;4.37;;;;;;;0.51;54.81;100720.86;1713875;82;21065;-65
2022/03/09 06:26:54;;;;;;;5.50;5.00;;;;;;;-0.02;55.55;100722.52;1714758;82;21011;-65
2022/03/09 06:29:21;;;;;;;5.20;4.70;;;;;;;-0.53;57.01;100736.20;1714939;82;20986;-69
2022/03/09 06:31:48;;;;;;;5.40;4.42;;;;;;;-0.94;57.93;100738.58;1714729;82;21562;-63
2022/03/09 06:34:15;;;;;;;5.10;4.37;;;;;;;-1.24;58.97;100741.86;1714989;82;21097;-67
2022/03/09 06:36:44;;;;;;;5.57;4.97;;;;;;;-1.47;60.08;100742.53;1714781;82;21671;-64
2022/03/09 06:39:12;;;;;;;7.20;5.20;;;;;;;-1.60;60.77;100741.19;1714628;82;21019;-65
2022/03/09 06:41:44;;;;;;;8.57;5.97;;;;;;;-1.70;61.39;100755.33;1714972;82;21129;-67
2022/03/09 06:44:14;;;;;;;11.17;6.07;;;;;;;-1.78;61.54;100752.37;1714724;82;21080;-64
2022/03/09 06:46:41;;;;;;;5.67;5.00;;;;;;;-1.93;62.02;100752.05;1712002;84;21046;-65
2022/03/09 06:49:09;;;;;;;6.13;5.30;;;;;;;-2.02;62.49;100750.85;1714762;82;21007;-64
2022/03/09 06:51:36;;;;;;;6.67;5.17;;;;;;;-2.07;62.47;100755.08;1697470;82;21066;-65
2022/03/09 06:54:02;;;;;;;;;;;;;;;-2.12;62.74;100751.08;1716852;82;21061;-64
2022/03/09 06:56:29;;;;;;;7.30;6.03;;;;;;;-2.13;63.27;100750.22;1714888;82;20190;-66
2022/03/09 06:58:56;;;;;;;;;;;;;;;-2.13;63.02;100746.77;1717183;82;21073;-69
2022/03/09 07:01:22;;;;;;;7.10;4.70;;;;;;;-2.09;62.76;100745.64;1694363;82;20142;-66
2022/03/09 07:03:50;;;;;;;8.30;4.93;;;;;;;-2.06;62.87;100747.59;1712944;82;21129;-69
2022/03/09 07:06:17;;;;;;;4.77;4.13;;;;;;;-2.02;62.36;100748.24;1697094;82;21089;-65
2022/03/09 07:08:44;;;;;;;7.17;5.97;;;;;;;-1.96;62.67;100750.45;1714708;82;21034;-67
2022/03/09 07:11:10;;;;;;;7.67;5.08;;;;;;;-1.80;62.32;100743.33;1714853;82;21069;-63
2022/03/09 07:13:41;;;;;;;8.93;5.20;;;;;;;-1.61;61.74;100751.29;1714557;82;21514;-67
2022/03/09 07:16:08;;;;;;;6.70;4.93;;;;;;;-1.50;61.08;100751.91;1694100;82;21103;-70
2022/03/09 07:18:35;;;;;;;7.27;5.23;;;;;;;-1.42;61.00;100743.08;1714466;82;21121;-66
2022/03/09 07:21:02;;;;;;;4.63;4.23;;;;;;;-1.45;60.95;100749.36;1714715;82;21109;-66
2022/03/09 07:23:31;;;;;;;;;;;;;;;-1.53;61.23;100729.39;1716656;82;21061;-67
2022/03/09 07:26:02;;;;;;;6.33;5.53;;;;;;;-1.67;61.70;100740.77;1713922;82;20115;-65
2022/03/09 07:28:29;;;;;;;5.73;4.93;;;;;;;-1.74;62.01;100746.48;1714281;82;21332;-66
2022/03/09 07:30:58;;;;;;;6.67;4.83;;;;;;;-1.71;62.26;100747.13;1714579;82;21110;-65
2022/03/09 07:33:26;;;;;;;6.30;5.30;;;;;;;-1.68;61.91;100742.16;1714452;82;21106;-68
2022/03/09 07:35:54;;;;;;;6.90;5.50;;;;;;;-1.71;61.85;100751.50;1713537;82;21045;-65
2022/03/09 07:38:23;;;;;;;6.50;4.93;;;;;;;-1.77;62.46;100746.23;1713621;82;21605;-66
2022/03/09 07:40:50;;;;;;;4.90;4.40;;;;;;;-1.82;62.54;100745.20;1714472;82;21494;-64
2022/03/09 07:43:18;;;;;;;7.30;5.77;;;;;;;-1.85;62.88;100749.78;1714319;82;21118;-63
2022/03/09 07:45:46;;;;;;;6.20;5.10;;;;;;;-1.83;62.97;100744.84;1713492;82;21021;-68
2022/03/09 07:48:12;;;;;;;5.73;5.13;;;;;;;-1.80;62.69;100745.11;1714670;82;21073;-67
2022/03/09 07:50:39;;;;;;;6.15;5.53;;;;;;;-1.86;62.80;100743.73;1697685;82;21045;-69
2022/03/09 07:53:08;;;;;;;5.43;4.60;;;;;;;-1.93;62.99;100743.74;1714824;82;20989;-65
2022/03/09 07:55:34;;;;;;;7.17;6.00;;;;;;;-1.94;63.16;100737.30;1714589;82;21299;-64
2022/03/09 07:58:02;;;;;;;7.00;5.60;;;;;;;-1.87;63.29;100736.81;1714576;82;21138;-64
2022/03/09 08:00:29;;;;;;;8.63;6.80;;;;;;;-1.80;63.06;100742.02;1714557;82;22355;-71
2022/03/09 08:02:56;;;;;;;9.13;6.73;;;;;;;-1.82;63.29;100737.84;1713579;82;21027;-65
2022/03/09 08:05:23;;;;;;;8.88;6.67;;;;;;;-1.80;63.35;100743.80;1694653;82;21099;-65
2022/03/09 08:07:50;;;;;;;7.63;6.10;;;;;;;-1.70;63.02;100744.04;1714704;82;21542;-66
2022/03/09 08:10:19;;;;;;;7.03;6.13;;;;;;;-1.60;62.84;100741.19;1714695;82;21260;-65
2022/03/09 08:12:47;;;;;;;8.40;6.60;;;;;;;-1.54;62.68;100749.09;1714691;82;21018;-66
2022/03/09 08:15:14;;;;;;;8.37;6.90;;;;;;;-1.58;62.51;100743.26;1713332;82;21102;-66
2022/03/09 08:17:43;;;;;;;6.07;5.47;;;;;;;-1.68;62.78;100752.14;1714363;82;21564;-65
2022/03/09 08:20:12;;;;;;;10.97;6.87;;;;;;;-1.68;63.28;100738.24;1714727;82;21209;-75
2022/03/09 08:22:39;;;;;;;8.20;7.37;;;;;;;-1.61;63.19;100740.36;1714835;82;21570;-66
2022/03/09 08:25:07;;;;;;;8.47;7.27;;;;;;;-1.53;63.14;100739.85;1714548;82;20985;-65
2022/03/09 08:27:34;;;;;;;9.63;6.63;;;;;;;-1.38;62.75;100743.23;1714093;82;21042;-64
2022/03/09 08:30:03;;;;;;;8.13;7.00;;;;;;;-1.39;62.43;100738.97;1714906;82;21142;-65
2022/03/09 08:32:30;;;;;;;7.70;6.70;;;;;;;-1.44;62.59;100741.03;1714878;82;21192;-73
2022/03/09 08:34:57;;;;;;;8.47;7.33;;;;;;;-1.45;62.59;100739.34;1714821;82;21026;-65
2022/03/09 08:37:24;;;;;;;11.85;6.60;;;;;;;-1.48;62.52;100746.93;1715059;82;21018;-67
2022/03/09 08:39:50;;;;;;;8.43;6.92;;;;;;;-1.52;62.88;100739.41;1715057;82;21049;-67
2022/03/09 08:42:17;;;;;;;6.47;5.37;;;;;;;-1.50;62.82;100739.66;1715075;82;21018;-64
2022/03/09 08:44:43;;;;;;;7.95;6.15;;;;;;;-1.37;63.08;100739.70;1694526;82;21220;-65
2022/03/09 08:47:10;;;;;;;7.67;6.30;;;;;;;-1.18;62.54;100741.45;1711560;82;21097;-66
2022/03/09 08:49:39;;;;;;;7.85;6.20;;;;;;;-1.12;62.14;100745.42;1697491;82;21004;-65
2022/03/09 08:52:09;;;;;;;9.23;6.20;;;;;;;-1.03;61.91;100746.60;1714705;82;20991;-66
2022/03/09 08:54:35;;;;;;;7.50;6.47;;;;;;;-1.05;62.02;100744.08;1714822;82;21053;-66
2022/03/09 08:59:21;;;;;;;8.20;6.83;;;;;;;-0.91;62.51;100737.08;1791004;79;22235;-66
2022/03/09 09:01:50;;;;;;;7.90;6.50;;;;;;;-0.86;62.16;100740.22;1714062;79;21093;-65
2022/03/09 09:04:17;;;;;;;9.03;7.23;;;;;;;-0.75;61.68;100742.95;1694513;83;21161;-66
2022/03/09 09:06:44;;;;;;;9.37;7.30;;;;;;;-0.72;61.66;100737.48;1691488;83;21434;-65
2022/03/09 09:09:14;;;;;;;8.77;7.30;;;;;;;-0.61;61.70;100736.74;1660548;84;21081;-67
2022/03/09 09:11:42;;;;;;;7.60;6.50;;;;;;;-0.45;61.38;100741.77;1648902;86;21083;-65
2022/03/09 09:14:08;;;;;;;8.40;7.53;;;;;;;-0.31;61.22;100739.00;1684750;83;21110;-66
2022/03/09 09:16:35;;;;;;;10.27;7.33;;;;;;;-0.14;60.71;100736.49;1706535;84;21119;-69
2022/03/09 09:19:03;;;;;;;8.63;7.60;;;;;;;-0.06;60.21;100729.39;1686422;84;21035;-66
2022/03/09 09:21:30;;;;;;;8.43;6.70;;;;;;;0.00;60.36;100730.28;1688660;84;21101;-64
2022/03/09 09:23:58;;;;;;;7.57;6.40;;;;;;;0.10;59.94;100729.14;1659716;85;21095;-64
2022/03/09 09:26:24;;;;;;;7.07;5.87;;;;;;;0.17;59.95;100732.52;1687278;83;21011;-65
2022/03/09 09:28:52;;;;;;;9.10;7.20;;;;;;;0.26;59.46;100734.09;1698350;84;21586;-64
2022/03/09 09:31:18;;;;;;;8.65;7.75;;;;;;;0.30;59.40;100731.16;1684459;83;21021;-67
2022/03/09 09:33:45;;;;;;;11.05;8.43;;;;;;;0.45;59.12;100730.95;1655714;84;21048;-73
2022/03/09 09:36:12;;;;;;;10.98;7.37;;;;;;;0.55;59.07;100730.66;1675553;84;21325;-63
2022/03/09 09:38:38;;;;;;;8.78;7.87;;;;;;;0.63;58.77;100725.66;1675735;85;21091;-65
2022/03/09 09:41:10;;;;;;;9.17;8.27;;;;;;;0.68;58.59;100720.05;1705311;83;21683;-71
2022/03/09 09:43:35;;;;;;;10.37;8.10;;;;;;;0.73;58.49;100717.93;1669942;84;21034;-68
2022/03/09 09:46:03;;;;;;;9.43;8.40;;;;;;;0.76;58.36;100725.09;1669874;83;21009;-67
2022/03/09 09:48:29;;;;;;;8.33;7.53;;;;;;;0.77;58.27;100720.67;1668898;84;21063;-65
2022/03/09 09:50:58;;;;;;;;;;;;;;;0.75;58.06;100729.14;1671842;84;21046;-65
2022/03/09 09:53:28;;;;;;;7.83;7.03;;;;;;;0.70;58.32;100723.42;1668642;84;20161;-71
2022/03/09 09:55:58;;;;;;;10.57;7.23;;;;;;;0.62;59.00;100723.14;1638161;84;21022;-66
2022/03/09 09:58:28;;;;;;;8.07;6.27;;;;;;;0.63;59.34;100728.77;1665076;86;21681;-69
2022/03/09 10:00:55;;;;;;;6.77;6.00;;;;;;;0.66;59.42;100726.75;1638244;86;21679;-65
2022/03/09 10:03:22;;;;;;;8.40;7.50;;;;;;;0.66;59.63;100727.20;1662211;86;21030;-65
2022/03/09 10:05:50;;;;;;;11.90;7.27;;;;;;;0.64;59.96;100731.28;1702833;83;21065;-66
2022/03/09 10:08:18;;;;;;;8.13;6.00;;;;;;;0.64;60.14;100733.05;1686799;84;21114;-69
2022/03/09 10:10:56;;;;;;;5.93;5.40;;;;;;;0.67;60.08;100732.83;1708909;83;21039;-66
2022/03/09 10:13:28;;;;;;;7.10;6.40;;;;;;;0.67;59.78;100737.59;1688665;82;21645;-65
2022/03/09 10:16:20;;;;;;;6.03;5.40;;;;;;;0.64;59.71;100732.59;1689079;84;21376;-66
2022/03/09 10:18:57;;;;;;;7.53;6.70;;;;;;;0.57;60.25;100732.20;1677984;85;22156;-68
2022/03/09 10:21:28;;;;;;;6.97;6.30;;;;;;;0.53;60.56;100739.11;1671241;85;21101;-64
2022/03/09 10:24:02;;;;;;;8.20;7.27;;;;;;;0.47;60.66;100743.48;1689568;84;21113;-65
2022/03/09 10:26:36;;;;;;;7.77;6.60;;;;;;;0.46;61.20;100737.89;1672523;84;22140;-64
2022/03/09 10:29:07;;;;;;;8.27;7.17;;;;;;;0.49;60.94;100743.75;1660919;84;21097;-65
2022/03/09 10:31:44;;;;;;;7.20;6.27;;;;;;;0.49;61.28;100736.33;1680971;84;21058;-67
2022/03/09 10:34:24;;;;;;;6.42;5.85;;;;;;;0.57;61.39;100736.13;1683486;83;21132;-68
2022/03/09 10:37:05;;;;;;;8.27;6.83;;;;;;;0.67;61.08;100727.09;1658653;85;21100;-66
2022/03/09 10:39:39;;;;;;;7.33;6.67;;;;;;;0.78;61.19;100740.73;1670688;84;21582;-65
2022/03/09 10:42:25;;;;;;;9.00;7.67;;;;;;;0.93;60.66;100740.06;1663862;84;21056;-71
2022/03/09 10:44:54;;;;;;;8.93;8.05;;;;;;;0.96;60.15;100739.80;1701547;84;21138;-65
2022/03/09 10:47:33;;;;;;;7.20;6.50;;;;;;;1.00;59.65;100740.41;1710489;82;21037;-65
2022/03/09 10:50:20;;;;;;;7.80;6.40;;;;;;;0.95;59.78;100738.15;1696683;82;21585;-75
2022/03/09 10:53:02;;;;;;;;;;;;;;;0.85;57.82;100739.33;1671431;82;21607;-66
2022/03/09 10:55:38;;;;;;;6.97;5.43;;;;;;;0.73;57.31;100736.30;1671785;82;20162;-67
2022/03/09 10:58:21;;;;;;;6.00;5.47;;;;;;;0.74;56.52;100742.75;1667796;85;21143;-70
2022/03/09 11:00:55;;;;;;;6.37;5.70;;;;;;;0.84;58.01;100738.13;1674926;83;21053;-65
2022/03/09 11:03:25;;;;;;;8.27;6.60;;;;;;;0.96;58.71;100730.62;1690402;83;21054;-65
2022/03/09 11:05:58;;;;;;;6.73;6.13;;;;;;;1.13;58.62;100727.56;1687409;83;21013;-65
2022/03/09 11:08:34;;;;;;;5.03;4.60;;;;;;;1.29;58.51;100732.45;1663911;83;21162;-68
2022/03/09 11:11:02;;;;;;;5.40;4.80;;;;;;;1.30;54.05;100732.83;1664263;83;21087;-66
2022/03/09 11:13:34;;;;;;;6.17;5.00;;;;;;;1.22;53.63;100727.80;1680210;83;21145;-66
2022/03/09 11:16:03;;;;;;;6.13;5.00;;;;;;;1.15;53.72;100735.33;1689922;83;21049;-73
2022/03/09 11:18:32;;;;;;;6.03;4.97;;;;;;;1.15;53.29;100732.70;1667957;85;21070;-65
2022/03/09 11:21:06;;;;;;;4.67;3.57;;;;;;;1.14;53.16;100723.14;1673632;83;21123;-72
2022/03/09 11:23:39;;;;;;;4.10;3.77;;;;;;;1.15;52.63;100723.03;1674194;83;21277;-67
2022/03/09 11:26:26;;;;;;;5.00;4.50;;;;;;;1.23;52.88;100724.23;1692412;83;21040;-71
2022/03/09 11:29:01;;;;;;;;;;;;;;;1.28;52.62;100725.55;1700316;83;21047;-65
2022/03/09 11:31:44;;;;;;;5.13;4.53;;;;;;;1.31;52.40;100724.47;1697288;83;20162;-66
2022/03/09 11:34:33;;;;;;;5.57;4.90;;;;;;;1.31;52.81;100728.41;1683917;83;21569;-69
2022/03/09 11:37:07;;;;;;;5.20;4.57;;;;;;;1.27;53.36;100721.23;1706941;82;21517;-65
2022/03/09 11:39:38;;;;;;;5.83;5.33;;;;;;;1.26;54.78;100725.29;1707450;82;21030;-65
2022/03/09 11:42:25;;;;;;;6.83;6.20;;;;;;;1.23;55.42;100727.69;1706248;82;21045;-67